Flight Track Log - Related Links

Times and Time Zones

All times are in EDT time to prevent confusion due to time zone crossing. See the AWE1991 flight status page for this flight to view local times or setup timezone preferences in your user account.

Time Position Orientation Groundspeed Altitude Reporting Facility
EDT Latitude Longitude Course Direction KTS MPH feet Rate Location/Type
Fri 09:51:51 AM 39.8667 -75.2833 311° West 157 181 1,000  Level Philadelphia TRACON
Fri 09:52:33 AM 39.8500 -75.3167 237° Southwest 170 196 2,400 1,941 Climbing Philadelphia TRACON
Fri 09:53:33 AM 39.8333 -75.3833 252° West 211 243 4,300 2,250 Climbing Philadelphia TRACON
Fri 09:54:00 AM 40.1132 -75.4632 323° Northwest  Level FlightAware Approximate
Fri 09:54:33 AM 39.8667 -75.4333 311° West 241 277 6,900  Level Philadelphia TRACON
Fri 09:55:00 AM 40.1946 -75.5446 323° Northwest  Level FlightAware Approximate
Fri 09:55:39 AM 39.9500 -75.4667 343° North 281 323 9,500  Level Philadelphia TRACON
Fri 09:56:00 AM 40.2687 -75.6280 311° West  Level FlightAware Approximate
Fri 09:56:39 AM 40.0333 -75.4833 351° North 294 338 11,400  Level Philadelphia TRACON
Fri 09:57:00 AM 40.3362 -75.7292 311° West  Level FlightAware Approximate
Fri 09:57:29 AM 40.0933 -75.5139 339° North 341 392 12,200  Level New York Center
Fri 09:58:29 AM 40.1856 -75.5500 343° North 353 406 13,000 500 Climbing New York Center
Fri 09:59:29 AM 40.2597 -75.6206 324° Northwest 330 380 13,200 1,587 Climbing New York Center
Fri 10:00:30 AM 40.3283 -75.7233 311° West 336 387 16,200 1,307 Climbing New York Center
Fri 10:02:28 AM 40.4392 -75.9114 308° West 342 394 17,100 300 Climbing New York Center
Fri 10:03:30 AM 40.4647 -76.0414 285° West 342 394 17,100 545 Level New York Center
Fri 10:04:29 AM 40.4828 -76.1519 282° West 347 399 18,200 958 Climbing New York Center
Fri 10:05:29 AM 40.5019 -76.2764 281° West 347 399 19,000 793 Climbing New York Center
Fri 10:06:30 AM 40.5208 -76.4061 281° West 352 405 19,800 1,361 Climbing New York Center
Fri 10:07:28 AM 40.5397 -76.5333 281° West 357 411 21,700 1,765 Climbing New York Center
Fri 10:08:29 AM 40.5583 -76.6633 281° West 357 411 23,300 1,426 Climbing New York Center
Fri 10:09:30 AM 40.5703 -76.8011 277° West 363 418 24,600 1,322 Climbing New York Center
Fri 10:10:27 AM 40.5839 -76.9417 277° West 375 432 25,900 1,373 Climbing New York Center
Fri 10:11:28 AM 40.5964 -77.0958 276° West 387 445 27,300 1,220 Climbing New York Center
Fri 10:12:30 AM 40.6094 -77.2392 277° West 387 445 28,400 1,008 Climbing New York Center
Fri 10:13:27 AM 40.6225 -77.3800 277° West 394 453 29,300 1,050 Climbing New York Center
Fri 10:14:30 AM 40.6333 -77.5233 276° West 394 453 30,500 1,185 Climbing New York Center
Fri 10:16:09 AM 40.6511 -77.7506 276° West 390 449 32,500 1,132 Climbing Cleveland Center
Fri 10:17:09 AM 40.6669 -77.8894 279° West 390 449 33,500 750 Climbing Cleveland Center
Fri 10:18:09 AM 40.6869 -78.0256 281° West 385 443 34,000 250 Climbing Cleveland Center
Fri 10:19:09 AM 40.7064 -78.1617 281° West 385 443 34,000  Level Cleveland Center
Fri 10:20:09 AM 40.7239 -78.3008 279° West 385 443 34,000  Level Cleveland Center
Fri 10:21:09 AM 40.7433 -78.4372 281° West 385 443 34,000  Level Cleveland Center
Fri 10:22:09 AM 40.7625 -78.5736 281° West 390 449 34,000  Level Cleveland Center
Fri 10:23:09 AM 40.7814 -78.7131 280° West 385 443 34,000  Level Cleveland Center
Fri 10:24:09 AM 40.7983 -78.8497 279° West 390 449 34,000  Level Cleveland Center
Fri 10:25:09 AM 40.8192 -78.9972 281° West 384 442 34,000  Level Cleveland Center
Fri 10:26:09 AM 40.8378 -79.1394 280° West 390 449 34,000  Level Cleveland Center
Fri 10:27:09 AM 40.8539 -79.2764 279° West 390 449 34,000  Level Cleveland Center
Fri 10:28:09 AM 40.8742 -79.4133 281° West 390 449 34,000  Level Cleveland Center
Fri 10:29:09 AM 40.8900 -79.5531 279° West 390 449 34,000  Level Cleveland Center
Fri 10:31:09 AM 40.9236 -79.8192 280° West 390 449 34,000  Level Cleveland Center
Fri 10:32:09 AM 40.9411 -79.9592 279° West 385 443 34,000  Level Cleveland Center
Fri 10:33:09 AM 40.9583 -80.0964 279° West 385 443 34,000  Level Cleveland Center
Fri 10:34:09 AM 40.9756 -80.2367 279° West 390 449 34,000  Level Cleveland Center
Fri 10:35:09 AM 40.9906 -80.3742 278° West 390 449 34,000  Level Cleveland Center
Fri 10:36:09 AM 41.0072 -80.5117 279° West 390 449 34,000  Level Cleveland Center
Fri 10:37:09 AM 41.0239 -80.6547 279° West 390 449 34,000  Level Cleveland Center
Fri 10:38:09 AM 41.0406 -80.7922 279° West 390 449 34,000  Level Cleveland Center
Fri 10:39:09 AM 41.0528 -80.9272 277° West 390 449 34,000  Level Cleveland Center
Fri 10:40:09 AM 41.0606 -81.0842 274° West 390 449 34,000  Level Cleveland Center
Fri 10:41:09 AM 41.0681 -81.2083 275° West 390 449 34,000  Level Cleveland Center
Fri 10:42:09 AM 41.0756 -81.3461 274° West 383 441 34,000  Level Cleveland Center
Fri 10:44:09 AM 41.0922 -81.6217 275° West 383 441 34,000  Level Cleveland Center
Fri 10:45:09 AM 41.1011 -81.7761 274° West 383 441 34,000  Level Cleveland Center
Fri 10:46:09 AM 41.1081 -81.9086 274° West 377 434 34,000  Level Cleveland Center
Fri 10:47:09 AM 41.1167 -82.0439 275° West 372 428 34,000  Level Cleveland Center
Fri 10:48:09 AM 41.1253 -82.1792 275° West 367 422 34,000  Level Cleveland Center
Fri 10:49:09 AM 41.1339 -82.3144 275° West 367 422 34,000  Level Cleveland Center
Fri 10:50:09 AM 41.1400 -82.4497 273° West 367 422 34,000  Level Cleveland Center
Fri 10:51:09 AM 41.1464 -82.5714 274° West 367 422 34,000  Level Cleveland Center
Fri 10:52:09 AM 41.1522 -82.7092 273° West 372 428 34,000  Level Cleveland Center
Fri 10:53:09 AM 41.1600 -82.8475 274° West 372 428 34,000  Level Cleveland Center
Fri 10:54:09 AM 41.1656 -82.9800 273° West 372 428 34,000  Level Cleveland Center
Fri 10:55:09 AM 41.1731 -83.1128 274° West 365 420 34,000  Level Cleveland Center
Fri 10:56:09 AM 41.1803 -83.2592 274° West 365 420 34,000  Level Cleveland Center
Fri 10:57:09 AM 41.1853 -83.3919 273° West 365 420 34,000  Level Cleveland Center
Fri 10:58:09 AM 41.1925 -83.5275 274° West 365 420 34,000  Level Cleveland Center
Fri 10:59:09 AM 41.1975 -83.6547 273° West 365 420 34,000  Level Cleveland Center
Fri 11:00:09 AM 41.2022 -83.7847 273° West 360 414 34,000  Level Cleveland Center
Fri 11:02:40 AM 41.2186 -84.0956 274° West 357 411 34,000  Level Chicago Center
Fri 11:03:42 AM 41.2244 -84.2286 273° West 361 415 34,000  Level Chicago Center
Fri 11:04:44 AM 41.2300 -84.3911 273° West 366 421 34,000  Level Chicago Center
Fri 11:05:46 AM 41.2361 -84.5269 273° West 369 425 34,000  Level Chicago Center
Fri 11:06:47 AM 41.2408 -84.6628 273° West 369 425 34,000  Level Chicago Center
Fri 11:07:49 AM 41.2461 -84.7967 273° West 363 418 34,000  Level Chicago Center
Fri 11:08:51 AM 41.2506 -84.9292 273° West 361 415 34,000 -532 Level Chicago Center
Fri 11:09:53 AM 41.2547 -85.0619 272° West 360 414 32,900 -1,500 Descending Chicago Center
Fri 11:10:55 AM 41.2592 -85.1908 273° West 351 404 30,900 -1,887 Descending Chicago Center
Fri 11:11:57 AM 41.2633 -85.3267 272° West 361 415 29,000 -1,984 Descending Chicago Center
Fri 11:12:59 AM 41.2678 -85.4889 272° West 364 419 26,800 -1,902 Descending Chicago Center
Fri 11:14:00 AM 41.2719 -85.6222 272° West 361 415 25,100 -878 Descending Chicago Center
Fri 11:15:02 AM 41.2758 -85.7589 272° West 366 421 25,000 -48 Descending Chicago Center
Fri 11:16:04 AM 41.2794 -85.9081 272° West 397 457 25,000  Level Chicago Center
Fri 11:17:06 AM 41.2869 -86.0528 274° West 395 455 25,000  Level Chicago Center
Fri 11:18:08 AM 41.3225 -86.1925 289° West 396 456 25,000  Level Chicago Center
Fri 11:19:09 AM 41.3564 -86.3294 288° West 391 450 25,000 -98 Level Chicago Center
Fri 11:20:11 AM 41.3911 -86.4664 289° West 390 449 24,800 -726 Descending Chicago Center
Fri 11:21:13 AM 41.4317 -86.6306 288° West 389 448 23,500 -1,935 Descending Chicago Center
Fri 11:22:15 AM 41.4633 -86.7608 288° West 381 438 20,800 -2,565 Descending Chicago Center
Fri 11:23:17 AM 41.4969 -86.8939 289° West 381 438 18,200 -2,226 Descending Chicago Center
Fri 11:24:19 AM 41.5294 -87.0253 288° West 376 433 16,200 -2,177 Descending Chicago Center
Fri 11:25:21 AM 41.5608 -87.1556 288° West 373 429 13,700 -2,510 Descending Chicago Center
Fri 11:25:57 AM 41.5833 -87.2500 288° West 364 419 12,100 -2,000 Descending Chicago TRACON
Fri 11:26:57 AM 41.6500 -87.3500 312° West 334 384 10,500 -1,379 Descending Chicago TRACON
Fri 11:27:24 AM 41.6714 -87.3881 307° West 331 381 10,100 -337 Descending Chicago Center
Fri 11:28:26 AM 41.7283 -87.4822 309° West 329 379 10,000 -145 Descending Chicago Center
Fri 11:29:28 AM 41.7814 -87.5686 309° West 304 350 9,800 -774 Descending Chicago Center
Fri 11:30:30 AM 41.8269 -87.6433 309° West 267 307 8,400 -1,483 Descending Chicago Center
Fri 11:30:57 AM 41.8500 -87.6833 308° West 260 299 7,600 -903 Descending Chicago TRACON
Fri 11:32:03 AM 41.9333 -87.7333 336° Northwest 280 322 7,000 -400 Descending Chicago TRACON
Fri 11:32:57 AM 41.9833 -87.7000 26° Northeast 249 287 6,800 -1,300 Descending Chicago TRACON
Fri 11:34:03 AM 42.0500 -87.6500 29° Northeast 213 245 4,400 -1,835 Descending Chicago TRACON
Fri 11:34:58 AM 42.0667 -87.7000 294° West 174 200 3,100 -1,418 Descending Chicago TRACON

Login

Don't have an account? Register now (free) for customized features, flight alerts, and more!